Merliz — SE2449 — position and weather

sailwx.info

Track history (hours):
 
Tides and Currents Weather Stations Pressure Air Temp Water Temp Dewpoint Dewpoint Depression Visibility Wind Speed Wind Dir Waves Ship Positions

Merliz

Last reported at 2018-Apr-23 05:43 UTC. Time now 2018-Apr-27 06:51 UTC.
Position N 53°52' E 008°42'.

Length 12 m.

Type: Sailing vessel. MMSI: 265694940.

Date/timePositionNaut miles runAvg speedWind from/ knotsBaromVisibWave heightAir tempDewpointWater temp
2018-Apr-23 05:43N 53°52' E 008°42'0 0.0
2018-Apr-23 05:19N 53°52' E 008°42'0 0.0
2018-Apr-23 03:04N 53°52' E 008°42'0 0.0
2018-Apr-23 01:04N 53°52' E 008°42'0 0.0
2018-Apr-23 00:55N 53°52' E 008°42'0 0.0
2018-Apr-22 23:34N 53°52' E 008°42'0 0.0
2018-Apr-22 21:25N 53°52' E 008°42'0 0.0
2018-Apr-22 20:37N 53°52' E 008°42'0 0.0
2018-Apr-22 20:26N 53°52' E 008°42'2 4.9
2018-Apr-22 19:59N 53°51' E 008°45'5 9.3
2018-Apr-22 19:29N 53°50' E 008°53'4 8.3
2018-Apr-22 19:00N 53°51' E 008°60'4 7.2
2018-Apr-22 18:30N 53°52' E 009°05'2 4.0
2018-Apr-22 17:53N 53°54' E 009°09'0 0.5
2018-Apr-22 17:29N 53°54' E 009°09'0 0.7
2018-Apr-22 16:59N 53°54' E 009°09'3 7.1
2018-Apr-22 16:30N 53°56' E 009°13'15 6.5
2018-Apr-22 14:11N 54°10' E 009°25'1 7.1
2018-Apr-22 14:00N 54°10' E 009°27'4 7.2
2018-Apr-22 13:30N 54°12' E 009°33'3 7.0
2018-Apr-22 13:00N 54°14' E 009°37'3 6.9
2018-Apr-22 12:30N 54°17' E 009°39'3 6.4
2018-Apr-22 11:59N 54°20' E 009°43'41 2.8
2018-Apr-21 21:37N 54°34' E 010°49'1 5.8
2018-Apr-21 21:30N 54°34' E 010°50'3 5.6
2018-Apr-21 21:00N 54°33' E 010°55'3 5.2
2018-Apr-21 20:25N 54°33' E 010°60'2 5.2
2018-Apr-21 19:57N 54°33' E 011°04'3 5.8
2018-Apr-21 19:30N 54°33' E 011°09'3 5.8
2018-Apr-21 19:00N 54°33' E 011°14'12 6.0
2018-Apr-21 17:04N 54°32' E 011°33'2 6.1
2018-Apr-21 16:42N 54°31' E 011°37'1 6.1
2018-Apr-21 16:29N 54°31' E 011°40'4 6.2
2018-Apr-21 15:53N 54°31' E 011°46'3 6.0
2018-Apr-21 15:22N 54°31' E 011°51'2 5.8
2018-Apr-21 15:01N 54°31' E 011°55'3 5.6
2018-Apr-21 14:30N 54°31' E 011°60'3 5.7
2018-Apr-21 14:01N 54°32' E 012°05'3 6.1
2018-Apr-21 13:30N 54°33' E 012°09'3 5.9
2018-Apr-21 13:00N 54°34' E 012°14'86 5.3
2018-Apr-20 20:40N 55°22' E 014°18'43 4.1
2018-Apr-20 10:15N 55°56' E 015°05'2 6.7
2018-Apr-20 10:01N 55°56' E 015°08'3 6.2
2018-Apr-20 09:31N 55°55' E 015°14'3 6.1
2018-Apr-20 09:01N 55°55' E 015°19'3 5.7
2018-Apr-20 08:31N 55°55' E 015°24'3 5.4
2018-Apr-20 08:00N 55°54' E 015°29'3 5.5
2018-Apr-20 07:30N 55°54' E 015°34'3 6.0
2018-Apr-20 07:01N 55°53' E 015°39'3 5.9
2018-Apr-20 06:31N 55°53' E 015°44'3 5.5
2018-Apr-20 06:00N 55°52' E 015°49'3 5.8
2018-Apr-20 05:31N 55°52' E 015°54'3 5.6
2018-Apr-20 05:01N 55°51' E 015°59'3 5.2
2018-Apr-20 04:31N 55°51' E 016°03'2 4.6
2018-Apr-20 04:01N 55°51' E 016°07'2 4.8
2018-Apr-20 03:31N 55°51' E 016°12'3 5.4
2018-Apr-20 03:00N 55°51' E 016°17'9 4.4
2018-Apr-20 00:51N 56°00' E 016°17'2 6.5
2018-Apr-20 00:31N 56°02' E 016°16'3 6.1
2018-Apr-20 00:00N 56°05' E 016°15'3 6.7
2018-Apr-19 23:31N 56°08' E 016°13'4 7.4
2018-Apr-19 23:01N 56°12' E 016°11'3 7.0
2018-Apr-19 22:31N 56°15' E 016°09'3 6.1
2018-Apr-19 22:01N 56°18' E 016°08'2 4.4
2018-Apr-19 21:30N 56°20' E 016°07'6 3.7
2018-Apr-19 19:45N 56°25' E 016°15'  
Track history (hours):
 
Tides and Currents Weather Stations Pressure Air Temp Water Temp Dewpoint Dewpoint Depression Visibility Wind Speed Wind Dir Waves Ship Positions

Merliz

Last reported at 2018-Apr-23 05:43 UTC. Time now 2018-Apr-27 06:51 UTC.
Position N 53°52' E 008°42'.

Length 12 m.

Type: Sailing vessel. MMSI: 265694940.

Date/timePositionNaut miles runAvg speedWind from/ knotsBaromVisibWave heightAir tempDewpointWater temp
2018-Apr-23 05:43N 53°52' E 008°42'0 0.0
2018-Apr-23 05:19N 53°52' E 008°42'0 0.0
2018-Apr-23 03:04N 53°52' E 008°42'0 0.0
2018-Apr-23 01:04N 53°52' E 008°42'0 0.0
2018-Apr-23 00:55N 53°52' E 008°42'0 0.0
2018-Apr-22 23:34N 53°52' E 008°42'0 0.0
2018-Apr-22 21:25N 53°52' E 008°42'0 0.0
2018-Apr-22 20:37N 53°52' E 008°42'0 0.0
2018-Apr-22 20:26N 53°52' E 008°42'2 4.9
2018-Apr-22 19:59N 53°51' E 008°45'5 9.3
2018-Apr-22 19:29N 53°50' E 008°53'4 8.3
2018-Apr-22 19:00N 53°51' E 008°60'4 7.2
2018-Apr-22 18:30N 53°52' E 009°05'2 4.0
2018-Apr-22 17:53N 53°54' E 009°09'0 0.5
2018-Apr-22 17:29N 53°54' E 009°09'0 0.7
2018-Apr-22 16:59N 53°54' E 009°09'3 7.1
2018-Apr-22 16:30N 53°56' E 009°13'15 6.5
2018-Apr-22 14:11N 54°10' E 009°25'1 7.1
2018-Apr-22 14:00N 54°10' E 009°27'4 7.2
2018-Apr-22 13:30N 54°12' E 009°33'3 7.0
2018-Apr-22 13:00N 54°14' E 009°37'3 6.9
2018-Apr-22 12:30N 54°17' E 009°39'3 6.4
2018-Apr-22 11:59N 54°20' E 009°43'41 2.8
2018-Apr-21 21:37N 54°34' E 010°49'1 5.8
2018-Apr-21 21:30N 54°34' E 010°50'3 5.6
2018-Apr-21 21:00N 54°33' E 010°55'3 5.2
2018-Apr-21 20:25N 54°33' E 010°60'2 5.2
2018-Apr-21 19:57N 54°33' E 011°04'3 5.8
2018-Apr-21 19:30N 54°33' E 011°09'3 5.8
2018-Apr-21 19:00N 54°33' E 011°14'12 6.0
2018-Apr-21 17:04N 54°32' E 011°33'2 6.1
2018-Apr-21 16:42N 54°31' E 011°37'1 6.1
2018-Apr-21 16:29N 54°31' E 011°40'4 6.2
2018-Apr-21 15:53N 54°31' E 011°46'3 6.0
2018-Apr-21 15:22N 54°31' E 011°51'2 5.8
2018-Apr-21 15:01N 54°31' E 011°55'3 5.6
2018-Apr-21 14:30N 54°31' E 011°60'3 5.7
2018-Apr-21 14:01N 54°32' E 012°05'3 6.1
2018-Apr-21 13:30N 54°33' E 012°09'3 5.9
2018-Apr-21 13:00N 54°34' E 012°14'86 5.3
2018-Apr-20 20:40N 55°22' E 014°18'43 4.1
2018-Apr-20 10:15N 55°56' E 015°05'2 6.7
2018-Apr-20 10:01N 55°56' E 015°08'3 6.2
2018-Apr-20 09:31N 55°55' E 015°14'3 6.1
2018-Apr-20 09:01N 55°55' E 015°19'3 5.7
2018-Apr-20 08:31N 55°55' E 015°24'3 5.4
2018-Apr-20 08:00N 55°54' E 015°29'3 5.5
2018-Apr-20 07:30N 55°54' E 015°34'3 6.0
2018-Apr-20 07:01N 55°53' E 015°39'3 5.9
2018-Apr-20 06:31N 55°53' E 015°44'3 5.5
2018-Apr-20 06:00N 55°52' E 015°49'3 5.8
2018-Apr-20 05:31N 55°52' E 015°54'3 5.6
2018-Apr-20 05:01N 55°51' E 015°59'3 5.2
2018-Apr-20 04:31N 55°51' E 016°03'2 4.6
2018-Apr-20 04:01N 55°51' E 016°07'2 4.8
2018-Apr-20 03:31N 55°51' E 016°12'3 5.4
2018-Apr-20 03:00N 55°51' E 016°17'9 4.4
2018-Apr-20 00:51N 56°00' E 016°17'2 6.5
2018-Apr-20 00:31N 56°02' E 016°16'3 6.1
2018-Apr-20 00:00N 56°05' E 016°15'3 6.7
2018-Apr-19 23:31N 56°08' E 016°13'4 7.4
2018-Apr-19 23:01N 56°12' E 016°11'3 7.0
2018-Apr-19 22:31N 56°15' E 016°09'3 6.1
2018-Apr-19 22:01N 56°18' E 016°08'2 4.4
2018-Apr-19 21:30N 56°20' E 016°07'6 3.7
2018-Apr-19 19:45N 56°25' E 016°15'  

Dump ship's entire track history